sensor_id;sensor_type;location;lat;lon;timestamp;P1;durP1;ratioP1;P2;durP2;ratioP2
14137;SDS011;8199;51.310;9.466;2023-08-08T00:01:28;3.08;;;1.85;;
14137;SDS011;8199;51.310;9.466;2023-08-08T00:03:54;2.60;;;2.00;;
14137;SDS011;8199;51.310;9.466;2023-08-08T00:06:19;2.38;;;2.17;;
14137;SDS011;8199;51.310;9.466;2023-08-08T00:08:45;2.75;;;1.65;;
14137;SDS011;8199;51.310;9.466;2023-08-08T00:11:10;2.15;;;1.80;;
14137;SDS011;8199;51.310;9.466;2023-08-08T00:13:36;2.08;;;1.88;;
14137;SDS011;8199;51.310;9.466;2023-08-08T00:16:02;1.88;;;1.52;;
14137;SDS011;8199;51.310;9.466;2023-08-08T00:18:27;2.53;;;1.95;;
14137;SDS011;8199;51.310;9.466;2023-08-08T00:20:53;2.03;;;1.52;;
14137;SDS011;8199;51.310;9.466;2023-08-08T00:23:19;2.25;;;1.58;;
14137;SDS011;8199;51.310;9.466;2023-08-08T00:25:44;2.45;;;1.92;;
14137;SDS011;8199;51.310;9.466;2023-08-08T00:28:14;3.88;;;1.77;;
14137;SDS011;8199;51.310;9.466;2023-08-08T00:30:41;2.53;;;1.90;;
14137;SDS011;8199;51.310;9.466;2023-08-08T00:33:06;2.03;;;1.77;;
14137;SDS011;8199;51.310;9.466;2023-08-08T00:35:32;3.65;;;2.00;;
14137;SDS011;8199;51.310;9.466;2023-08-08T00:37:57;2.92;;;1.83;;
14137;SDS011;8199;51.310;9.466;2023-08-08T00:40:23;2.67;;;1.67;;
14137;SDS011;8199;51.310;9.466;2023-08-08T00:42:48;1.70;;;1.55;;
14137;SDS011;8199;51.310;9.466;2023-08-08T00:45:14;2.10;;;1.67;;
14137;SDS011;8199;51.310;9.466;2023-08-08T00:47:39;2.20;;;1.80;;
14137;SDS011;8199;51.310;9.466;2023-08-08T00:50:05;2.47;;;1.65;;
14137;SDS011;8199;51.310;9.466;2023-08-08T00:52:31;1.90;;;1.50;;
14137;SDS011;8199;51.310;9.466;2023-08-08T00:54:57;2.25;;;1.67;;
14137;SDS011;8199;51.310;9.466;2023-08-08T00:57:23;2.83;;;1.70;;
14137;SDS011;8199;51.310;9.466;2023-08-08T00:59:49;3.65;;;1.67;;
14137;SDS011;8199;51.310;9.466;2023-08-08T01:02:15;2.03;;;1.42;;
14137;SDS011;8199;51.310;9.466;2023-08-08T01:04:41;2.28;;;1.50;;
14137;SDS011;8199;51.310;9.466;2023-08-08T01:09:59;1.92;;;1.50;;
14137;SDS011;8199;51.310;9.466;2023-08-08T01:12:59;1.55;;;1.45;;
14137;SDS011;8199;51.310;9.466;2023-08-08T01:15:29;3.63;;;1.67;;
14137;SDS011;8199;51.310;9.466;2023-08-08T01:18:00;1.52;;;1.42;;
14137;SDS011;8199;51.310;9.466;2023-08-08T01:20:30;1.92;;;1.55;;
14137;SDS011;8199;51.310;9.466;2023-08-08T01:25:48;2.63;;;1.80;;
14137;SDS011;8199;51.310;9.466;2023-08-08T01:28:15;2.55;;;1.83;;
14137;SDS011;8199;51.310;9.466;2023-08-08T01:30:41;2.55;;;1.63;;
14137;SDS011;8199;51.310;9.466;2023-08-08T01:33:07;3.88;;;1.90;;
14137;SDS011;8199;51.310;9.466;2023-08-08T01:35:34;1.85;;;1.67;;
14137;SDS011;8199;51.310;9.466;2023-08-08T01:38:09;1.95;;;1.50;;
14137;SDS011;8199;51.310;9.466;2023-08-08T01:40:45;1.58;;;1.35;;
14137;SDS011;8199;51.310;9.466;2023-08-08T01:43:11;2.00;;;1.80;;
14137;SDS011;8199;51.310;9.466;2023-08-08T01:45:39;2.47;;;1.73;;
14137;SDS011;8199;51.310;9.466;2023-08-08T01:48:08;2.08;;;1.63;;
14137;SDS011;8199;51.310;9.466;2023-08-08T01:50:34;1.45;;;1.35;;
14137;SDS011;8199;51.310;9.466;2023-08-08T01:53:01;2.00;;;1.45;;
14137;SDS011;8199;51.310;9.466;2023-08-08T01:55:26;1.95;;;1.45;;
14137;SDS011;8199;51.310;9.466;2023-08-08T01:57:52;1.80;;;1.65;;
14137;SDS011;8199;51.310;9.466;2023-08-08T02:00:18;2.33;;;1.63;;
14137;SDS011;8199;51.310;9.466;2023-08-08T02:02:43;2.38;;;1.80;;
14137;SDS011;8199;51.310;9.466;2023-08-08T02:05:09;2.55;;;1.40;;
14137;SDS011;8199;51.310;9.466;2023-08-08T02:07:34;2.58;;;1.67;;
14137;SDS011;8199;51.310;9.466;2023-08-08T02:10:00;2.75;;;1.48;;
14137;SDS011;8199;51.310;9.466;2023-08-08T02:12:26;1.70;;;1.60;;
14137;SDS011;8199;51.310;9.466;2023-08-08T02:14:53;1.88;;;1.40;;
14137;SDS011;8199;51.310;9.466;2023-08-08T02:17:19;2.70;;;1.52;;
14137;SDS011;8199;51.310;9.466;2023-08-08T02:19:45;2.65;;;1.50;;
14137;SDS011;8199;51.310;9.466;2023-08-08T02:22:11;2.97;;;1.60;;
14137;SDS011;8199;51.310;9.466;2023-08-08T02:24:36;2.10;;;1.70;;
14137;SDS011;8199;51.310;9.466;2023-08-08T02:27:02;1.75;;;1.40;;
14137;SDS011;8199;51.310;9.466;2023-08-08T02:29:27;1.60;;;1.50;;
14137;SDS011;8199;51.310;9.466;2023-08-08T02:31:53;1.88;;;1.35;;
14137;SDS011;8199;51.310;9.466;2023-08-08T02:34:19;1.45;;;1.35;;
14137;SDS011;8199;51.310;9.466;2023-08-08T02:36:44;1.80;;;1.20;;
14137;SDS011;8199;51.310;9.466;2023-08-08T02:39:10;1.40;;;1.30;;
14137;SDS011;8199;51.310;9.466;2023-08-08T02:41:35;2.92;;;1.50;;
14137;SDS011;8199;51.310;9.466;2023-08-08T02:44:01;2.25;;;1.42;;
14137;SDS011;8199;51.310;9.466;2023-08-08T02:46:26;1.48;;;1.38;;
14137;SDS011;8199;51.310;9.466;2023-08-08T02:48:52;2.42;;;1.50;;
14137;SDS011;8199;51.310;9.466;2023-08-08T02:51:17;2.20;;;1.75;;
14137;SDS011;8199;51.310;9.466;2023-08-08T02:53:43;1.95;;;1.50;;
14137;SDS011;8199;51.310;9.466;2023-08-08T02:56:08;2.72;;;1.60;;
14137;SDS011;8199;51.310;9.466;2023-08-08T02:58:34;2.90;;;2.00;;
14137;SDS011;8199;51.310;9.466;2023-08-08T03:00:59;1.83;;;1.48;;
14137;SDS011;8199;51.310;9.466;2023-08-08T03:03:25;1.45;;;1.27;;
14137;SDS011;8199;51.310;9.466;2023-08-08T03:05:50;1.55;;;1.45;;
14137;SDS011;8199;51.310;9.466;2023-08-08T03:08:16;2.15;;;1.50;;
14137;SDS011;8199;51.310;9.466;2023-08-08T03:10:41;1.60;;;1.50;;
14137;SDS011;8199;51.310;9.466;2023-08-08T03:13:07;2.65;;;1.60;;
14137;SDS011;8199;51.310;9.466;2023-08-08T03:15:32;1.52;;;1.42;;
14137;SDS011;8199;51.310;9.466;2023-08-08T03:17:58;2.00;;;1.35;;
14137;SDS011;8199;51.310;9.466;2023-08-08T03:20:23;1.98;;;1.30;;
14137;SDS011;8199;51.310;9.466;2023-08-08T03:22:49;2.38;;;1.52;;
14137;SDS011;8199;51.310;9.466;2023-08-08T03:25:15;2.05;;;1.63;;
14137;SDS011;8199;51.310;9.466;2023-08-08T03:27:41;2.75;;;1.55;;
14137;SDS011;8199;51.310;9.466;2023-08-08T03:30:08;1.48;;;1.38;;
14137;SDS011;8199;51.310;9.466;2023-08-08T03:32:34;2.70;;;1.80;;
14137;SDS011;8199;51.310;9.466;2023-08-08T03:34:59;2.83;;;1.30;;
14137;SDS011;8199;51.310;9.466;2023-08-08T03:37:25;2.55;;;1.70;;
14137;SDS011;8199;51.310;9.466;2023-08-08T03:39:50;2.05;;;1.60;;
14137;SDS011;8199;51.310;9.466;2023-08-08T03:42:16;1.88;;;1.70;;
14137;SDS011;8199;51.310;9.466;2023-08-08T03:44:42;2.60;;;1.50;;
14137;SDS011;8199;51.310;9.466;2023-08-08T03:47:07;2.30;;;1.83;;
14137;SDS011;8199;51.310;9.466;2023-08-08T03:49:33;1.85;;;1.50;;
14137;SDS011;8199;51.310;9.466;2023-08-08T03:51:58;2.83;;;1.85;;
14137;SDS011;8199;51.310;9.466;2023-08-08T03:54:24;2.08;;;1.48;;
14137;SDS011;8199;51.310;9.466;2023-08-08T03:56:49;1.90;;;1.40;;
14137;SDS011;8199;51.310;9.466;2023-08-08T03:59:15;2.88;;;1.40;;
14137;SDS011;8199;51.310;9.466;2023-08-08T04:01:40;3.88;;;1.73;;
14137;SDS011;8199;51.310;9.466;2023-08-08T04:04:06;1.65;;;1.38;;
14137;SDS011;8199;51.310;9.466;2023-08-08T04:06:31;2.10;;;1.33;;
14137;SDS011;8199;51.310;9.466;2023-08-08T04:08:57;1.80;;;1.30;;
14137;SDS011;8199;51.310;9.466;2023-08-08T04:11:23;1.90;;;1.10;;
14137;SDS011;8199;51.310;9.466;2023-08-08T04:13:48;1.50;;;1.40;;
14137;SDS011;8199;51.310;9.466;2023-08-08T04:16:14;1.55;;;1.30;;
14137;SDS011;8199;51.310;9.466;2023-08-08T04:18:39;2.35;;;1.38;;
14137;SDS011;8199;51.310;9.466;2023-08-08T04:21:05;1.13;;;1.02;;
14137;SDS011;8199;51.310;9.466;2023-08-08T04:23:31;1.30;;;1.00;;
14137;SDS011;8199;51.310;9.466;2023-08-08T04:25:56;1.45;;;1.35;;
14137;SDS011;8199;51.310;9.466;2023-08-08T04:28:22;1.30;;;1.20;;
14137;SDS011;8199;51.310;9.466;2023-08-08T04:30:47;1.75;;;1.50;;
14137;SDS011;8199;51.310;9.466;2023-08-08T04:33:13;2.47;;;1.55;;
14137;SDS011;8199;51.310;9.466;2023-08-08T04:35:38;2.13;;;1.30;;
14137;SDS011;8199;51.310;9.466;2023-08-08T04:38:04;1.80;;;1.50;;
14137;SDS011;8199;51.310;9.466;2023-08-08T04:40:29;1.50;;;1.40;;
14137;SDS011;8199;51.310;9.466;2023-08-08T04:42:55;3.85;;;1.38;;
14137;SDS011;8199;51.310;9.466;2023-08-08T04:45:21;1.85;;;1.30;;
14137;SDS011;8199;51.310;9.466;2023-08-08T04:47:46;1.50;;;1.20;;
14137;SDS011;8199;51.310;9.466;2023-08-08T04:50:12;1.45;;;1.30;;
14137;SDS011;8199;51.310;9.466;2023-08-08T04:52:38;2.65;;;1.42;;
14137;SDS011;8199;51.310;9.466;2023-08-08T04:55:03;1.63;;;1.30;;
14137;SDS011;8199;51.310;9.466;2023-08-08T04:57:29;1.83;;;1.45;;
14137;SDS011;8199;51.310;9.466;2023-08-08T04:59:55;12.25;;;4.28;;
14137;SDS011;8199;51.310;9.466;2023-08-08T05:02:21;11.98;;;3.58;;
14137;SDS011;8199;51.310;9.466;2023-08-08T05:04:46;12.00;;;4.10;;
14137;SDS011;8199;51.310;9.466;2023-08-08T05:07:12;10.55;;;3.88;;
14137;SDS011;8199;51.310;9.466;2023-08-08T05:09:38;18.50;;;4.63;;
14137;SDS011;8199;51.310;9.466;2023-08-08T05:12:03;14.02;;;3.85;;
14137;SDS011;8199;51.310;9.466;2023-08-08T05:14:29;10.88;;;2.65;;
14137;SDS011;8199;51.310;9.466;2023-08-08T05:16:55;8.13;;;2.78;;
14137;SDS011;8199;51.310;9.466;2023-08-08T05:19:20;8.90;;;2.67;;
14137;SDS011;8199;51.310;9.466;2023-08-08T05:21:46;8.85;;;2.75;;
14137;SDS011;8199;51.310;9.466;2023-08-08T05:24:12;10.23;;;3.42;;
14137;SDS011;8199;51.310;9.466;2023-08-08T05:26:37;10.77;;;3.20;;
14137;SDS011;8199;51.310;9.466;2023-08-08T05:29:03;13.07;;;3.92;;
14137;SDS011;8199;51.310;9.466;2023-08-08T05:31:28;17.48;;;5.10;;
14137;SDS011;8199;51.310;9.466;2023-08-08T05:33:54;12.82;;;4.97;;
14137;SDS011;8199;51.310;9.466;2023-08-08T05:36:19;21.15;;;6.25;;
14137;SDS011;8199;51.310;9.466;2023-08-08T05:38:45;15.63;;;6.28;;
14137;SDS011;8199;51.310;9.466;2023-08-08T05:41:10;19.60;;;7.32;;
14137;SDS011;8199;51.310;9.466;2023-08-08T05:43:36;22.73;;;7.25;;
14137;SDS011;8199;51.310;9.466;2023-08-08T05:46:01;18.95;;;7.18;;
14137;SDS011;8199;51.310;9.466;2023-08-08T05:48:27;19.75;;;7.97;;
14137;SDS011;8199;51.310;9.466;2023-08-08T05:50:53;22.05;;;6.75;;
14137;SDS011;8199;51.310;9.466;2023-08-08T05:53:18;21.83;;;7.20;;
14137;SDS011;8199;51.310;9.466;2023-08-08T05:55:44;20.00;;;6.80;;
14137;SDS011;8199;51.310;9.466;2023-08-08T05:58:09;18.00;;;6.03;;
14137;SDS011;8199;51.310;9.466;2023-08-08T06:00:35;19.42;;;6.20;;
14137;SDS011;8199;51.310;9.466;2023-08-08T06:03:01;20.25;;;6.63;;
14137;SDS011;8199;51.310;9.466;2023-08-08T06:05:26;18.08;;;6.50;;
14137;SDS011;8199;51.310;9.466;2023-08-08T06:07:53;17.38;;;5.53;;
14137;SDS011;8199;51.310;9.466;2023-08-08T06:10:20;16.30;;;5.78;;
14137;SDS011;8199;51.310;9.466;2023-08-08T06:12:45;16.10;;;5.90;;
14137;SDS011;8199;51.310;9.466;2023-08-08T06:15:11;13.43;;;5.40;;
14137;SDS011;8199;51.310;9.466;2023-08-08T06:17:37;10.63;;;5.07;;
14137;SDS011;8199;51.310;9.466;2023-08-08T06:20:02;13.15;;;5.18;;
14137;SDS011;8199;51.310;9.466;2023-08-08T06:22:28;13.23;;;5.78;;
14137;SDS011;8199;51.310;9.466;2023-08-08T06:24:54;12.35;;;5.88;;
14137;SDS011;8199;51.310;9.466;2023-08-08T06:27:19;16.42;;;5.63;;
14137;SDS011;8199;51.310;9.466;2023-08-08T06:29:45;13.32;;;5.82;;
14137;SDS011;8199;51.310;9.466;2023-08-08T06:32:10;11.40;;;4.90;;
14137;SDS011;8199;51.310;9.466;2023-08-08T06:34:36;12.45;;;5.82;;
14137;SDS011;8199;51.310;9.466;2023-08-08T06:37:01;13.23;;;5.93;;
14137;SDS011;8199;51.310;9.466;2023-08-08T06:39:27;8.40;;;4.43;;
14137;SDS011;8199;51.310;9.466;2023-08-08T06:41:53;9.77;;;4.65;;
14137;SDS011;8199;51.310;9.466;2023-08-08T06:44:18;7.75;;;4.07;;
14137;SDS011;8199;51.310;9.466;2023-08-08T06:46:44;9.10;;;4.60;;
14137;SDS011;8199;51.310;9.466;2023-08-08T06:49:09;8.48;;;4.55;;
14137;SDS011;8199;51.310;9.466;2023-08-08T06:51:35;10.25;;;4.80;;
14137;SDS011;8199;51.310;9.466;2023-08-08T06:54:01;9.35;;;4.57;;
14137;SDS011;8199;51.310;9.466;2023-08-08T06:56:26;8.02;;;4.25;;
14137;SDS011;8199;51.310;9.466;2023-08-08T06:58:52;7.18;;;4.20;;
14137;SDS011;8199;51.310;9.466;2023-08-08T07:01:18;7.03;;;4.20;;
14137;SDS011;8199;51.310;9.466;2023-08-08T07:03:44;9.07;;;3.90;;
14137;SDS011;8199;51.310;9.466;2023-08-08T07:06:11;6.68;;;4.03;;
14137;SDS011;8199;51.310;9.466;2023-08-08T07:08:37;6.78;;;3.92;;
14137;SDS011;8199;51.310;9.466;2023-08-08T07:11:04;6.45;;;4.25;;
14137;SDS011;8199;51.310;9.466;2023-08-08T07:13:33;6.90;;;3.92;;
14137;SDS011;8199;51.310;9.466;2023-08-08T07:15:59;7.57;;;3.90;;
14137;SDS011;8199;51.310;9.466;2023-08-08T07:18:24;10.30;;;4.25;;
14137;SDS011;8199;51.310;9.466;2023-08-08T07:20:50;10.88;;;4.40;;
14137;SDS011;8199;51.310;9.466;2023-08-08T07:23:15;9.68;;;4.53;;
14137;SDS011;8199;51.310;9.466;2023-08-08T07:25:41;7.18;;;4.18;;
14137;SDS011;8199;51.310;9.466;2023-08-08T07:28:07;9.57;;;4.38;;
14137;SDS011;8199;51.310;9.466;2023-08-08T07:30:33;9.30;;;4.50;;
14137;SDS011;8199;51.310;9.466;2023-08-08T07:32:59;10.27;;;4.32;;
14137;SDS011;8199;51.310;9.466;2023-08-08T07:35:25;8.70;;;4.60;;
14137;SDS011;8199;51.310;9.466;2023-08-08T07:37:50;8.38;;;4.63;;
14137;SDS011;8199;51.310;9.466;2023-08-08T07:40:16;7.03;;;4.18;;
14137;SDS011;8199;51.310;9.466;2023-08-08T07:42:44;8.60;;;4.25;;
14137;SDS011;8199;51.310;9.466;2023-08-08T07:45:10;9.50;;;3.90;;
14137;SDS011;8199;51.310;9.466;2023-08-08T07:47:36;6.90;;;3.85;;
14137;SDS011;8199;51.310;9.466;2023-08-08T07:50:01;6.00;;;3.72;;
14137;SDS011;8199;51.310;9.466;2023-08-08T07:52:27;8.13;;;4.00;;
14137;SDS011;8199;51.310;9.466;2023-08-08T07:54:53;6.43;;;3.85;;
14137;SDS011;8199;51.310;9.466;2023-08-08T07:57:18;10.32;;;3.50;;
14137;SDS011;8199;51.310;9.466;2023-08-08T07:59:44;6.25;;;3.38;;
14137;SDS011;8199;51.310;9.466;2023-08-08T08:02:09;7.40;;;3.65;;
14137;SDS011;8199;51.310;9.466;2023-08-08T08:04:35;6.53;;;3.85;;
14137;SDS011;8199;51.310;9.466;2023-08-08T08:07:01;7.80;;;3.85;;
14137;SDS011;8199;51.310;9.466;2023-08-08T08:09:27;6.30;;;3.60;;
14137;SDS011;8199;51.310;9.466;2023-08-08T08:11:53;7.05;;;3.50;;
14137;SDS011;8199;51.310;9.466;2023-08-08T08:14:18;5.60;;;3.20;;
14137;SDS011;8199;51.310;9.466;2023-08-08T08:16:45;5.43;;;3.58;;
14137;SDS011;8199;51.310;9.466;2023-08-08T08:19:11;8.05;;;3.55;;
14137;SDS011;8199;51.310;9.466;2023-08-08T08:21:36;5.30;;;2.95;;
14137;SDS011;8199;51.310;9.466;2023-08-08T08:24:03;4.88;;;3.25;;
14137;SDS011;8199;51.310;9.466;2023-08-08T08:26:29;5.30;;;3.33;;
14137;SDS011;8199;51.310;9.466;2023-08-08T08:28:54;4.40;;;2.95;;
14137;SDS011;8199;51.310;9.466;2023-08-08T08:31:20;5.65;;;3.65;;
14137;SDS011;8199;51.310;9.466;2023-08-08T08:33:45;5.22;;;3.25;;
14137;SDS011;8199;51.310;9.466;2023-08-08T08:36:11;6.97;;;3.58;;
14137;SDS011;8199;51.310;9.466;2023-08-08T08:38:37;5.70;;;3.05;;
14137;SDS011;8199;51.310;9.466;2023-08-08T08:41:03;3.58;;;2.95;;
14137;SDS011;8199;51.310;9.466;2023-08-08T08:43:30;4.88;;;3.42;;
14137;SDS011;8199;51.310;9.466;2023-08-08T08:45:56;4.20;;;3.03;;
14137;SDS011;8199;51.310;9.466;2023-08-08T08:48:27;4.35;;;3.38;;
14137;SDS011;8199;51.310;9.466;2023-08-08T08:50:53;5.15;;;3.80;;
14137;SDS011;8199;51.310;9.466;2023-08-08T08:53:18;5.75;;;3.35;;
14137;SDS011;8199;51.310;9.466;2023-08-08T08:55:45;4.18;;;3.40;;
14137;SDS011;8199;51.310;9.466;2023-08-08T08:58:13;5.70;;;3.20;;
14137;SDS011;8199;51.310;9.466;2023-08-08T09:00:41;4.32;;;3.10;;
14137;SDS011;8199;51.310;9.466;2023-08-08T09:03:08;3.70;;;3.03;;
14137;SDS011;8199;51.310;9.466;2023-08-08T09:05:34;4.25;;;2.83;;
14137;SDS011;8199;51.310;9.466;2023-08-08T09:08:01;4.65;;;2.78;;
14137;SDS011;8199;51.310;9.466;2023-08-08T09:10:27;4.70;;;3.10;;
14137;SDS011;8199;51.310;9.466;2023-08-08T09:12:56;4.15;;;3.28;;
14137;SDS011;8199;51.310;9.466;2023-08-08T09:15:22;5.13;;;2.83;;
14137;SDS011;8199;51.310;9.466;2023-08-08T09:17:48;4.38;;;3.10;;
14137;SDS011;8199;51.310;9.466;2023-08-08T09:20:13;3.67;;;3.05;;
14137;SDS011;8199;51.310;9.466;2023-08-08T09:22:39;3.08;;;2.80;;
14137;SDS011;8199;51.310;9.466;2023-08-08T09:25:05;4.03;;;2.80;;
14137;SDS011;8199;51.310;9.466;2023-08-08T09:27:33;3.63;;;3.15;;
14137;SDS011;8199;51.310;9.466;2023-08-08T09:29:58;5.07;;;3.03;;
14137;SDS011;8199;51.310;9.466;2023-08-08T09:32:28;5.28;;;3.13;;
14137;SDS011;8199;51.310;9.466;2023-08-08T09:34:55;4.47;;;3.58;;
14137;SDS011;8199;51.310;9.466;2023-08-08T09:37:22;4.97;;;3.80;;
14137;SDS011;8199;51.310;9.466;2023-08-08T09:39:55;4.78;;;3.63;;
14137;SDS011;8199;51.310;9.466;2023-08-08T09:42:21;5.03;;;3.47;;
14137;SDS011;8199;51.310;9.466;2023-08-08T09:44:47;4.53;;;4.05;;
14137;SDS011;8199;51.310;9.466;2023-08-08T09:47:12;6.72;;;4.75;;
14137;SDS011;8199;51.310;9.466;2023-08-08T09:49:39;5.75;;;5.10;;
14137;SDS011;8199;51.310;9.466;2023-08-08T09:52:05;6.15;;;5.43;;
14137;SDS011;8199;51.310;9.466;2023-08-08T09:54:32;6.60;;;5.47;;
14137;SDS011;8199;51.310;9.466;2023-08-08T09:56:58;6.68;;;5.85;;
14137;SDS011;8199;51.310;9.466;2023-08-08T09:59:25;8.07;;;6.38;;
14137;SDS011;8199;51.310;9.466;2023-08-08T10:01:50;8.05;;;6.38;;
14137;SDS011;8199;51.310;9.466;2023-08-08T10:04:17;8.70;;;6.53;;
14137;SDS011;8199;51.310;9.466;2023-08-08T10:06:43;9.20;;;6.75;;
14137;SDS011;8199;51.310;9.466;2023-08-08T10:09:09;7.88;;;6.88;;
14137;SDS011;8199;51.310;9.466;2023-08-08T10:11:35;9.50;;;7.35;;
14137;SDS011;8199;51.310;9.466;2023-08-08T10:14:02;10.18;;;8.25;;
14137;SDS011;8199;51.310;9.466;2023-08-08T10:16:31;10.52;;;8.60;;
14137;SDS011;8199;51.310;9.466;2023-08-08T10:18:59;10.65;;;8.55;;
14137;SDS011;8199;51.310;9.466;2023-08-08T10:21:27;11.25;;;8.95;;
14137;SDS011;8199;51.310;9.466;2023-08-08T10:26:29;13.52;;;10.00;;
14137;SDS011;8199;51.310;9.466;2023-08-08T10:28:56;14.68;;;10.40;;
14137;SDS011;8199;51.310;9.466;2023-08-08T10:31:22;17.73;;;11.82;;
14137;SDS011;8199;51.310;9.466;2023-08-08T10:33:48;14.18;;;11.18;;
14137;SDS011;8199;51.310;9.466;2023-08-08T10:36:14;16.10;;;12.50;;
14137;SDS011;8199;51.310;9.466;2023-08-08T10:41:18;16.75;;;13.15;;
14137;SDS011;8199;51.310;9.466;2023-08-08T10:48:51;21.25;;;16.63;;
14137;SDS011;8199;51.310;9.466;2023-08-08T10:51:21;21.38;;;16.63;;
14137;SDS011;8199;51.310;9.466;2023-08-08T10:53:50;19.00;;;15.40;;
14137;SDS011;8199;51.310;9.466;2023-08-08T10:56:17;31.38;;;24.92;;
14137;SDS011;8199;51.310;9.466;2023-08-08T10:58:47;21.45;;;17.63;;
14137;SDS011;8199;51.310;9.466;2023-08-08T11:01:14;26.77;;;21.73;;
14137;SDS011;8199;51.310;9.466;2023-08-08T11:03:42;27.40;;;21.40;;
14137;SDS011;8199;51.310;9.466;2023-08-08T11:06:08;28.27;;;23.38;;
14137;SDS011;8199;51.310;9.466;2023-08-08T11:08:35;24.73;;;20.13;;
14137;SDS011;8199;51.310;9.466;2023-08-08T11:11:03;32.78;;;25.77;;
14137;SDS011;8199;51.310;9.466;2023-08-08T11:13:30;30.45;;;24.13;;
14137;SDS011;8199;51.310;9.466;2023-08-08T11:15:56;32.72;;;25.67;;
14137;SDS011;8199;51.310;9.466;2023-08-08T11:18:21;33.90;;;26.92;;
14137;SDS011;8199;51.310;9.466;2023-08-08T11:20:47;36.08;;;28.05;;
14137;SDS011;8199;51.310;9.466;2023-08-08T11:23:14;39.53;;;31.20;;
14137;SDS011;8199;51.310;9.466;2023-08-08T11:25:40;47.22;;;37.25;;
14137;SDS011;8199;51.310;9.466;2023-08-08T11:28:07;42.35;;;33.13;;
14137;SDS011;8199;51.310;9.466;2023-08-08T11:30:34;41.72;;;32.45;;
14137;SDS011;8199;51.310;9.466;2023-08-08T11:33:01;43.92;;;35.08;;
14137;SDS011;8199;51.310;9.466;2023-08-08T11:35:27;47.53;;;36.65;;
14137;SDS011;8199;51.310;9.466;2023-08-08T11:37:53;51.50;;;39.95;;
14137;SDS011;8199;51.310;9.466;2023-08-08T11:40:20;45.83;;;35.53;;
14137;SDS011;8199;51.310;9.466;2023-08-08T11:42:48;53.60;;;41.72;;
14137;SDS011;8199;51.310;9.466;2023-08-08T11:45:16;54.08;;;42.38;;
14137;SDS011;8199;51.310;9.466;2023-08-08T11:47:42;60.83;;;46.65;;
14137;SDS011;8199;51.310;9.466;2023-08-08T11:50:09;56.58;;;43.60;;
14137;SDS011;8199;51.310;9.466;2023-08-08T11:52:42;56.17;;;43.67;;
14137;SDS011;8199;51.310;9.466;2023-08-08T11:55:10;54.55;;;43.38;;
14137;SDS011;8199;51.310;9.466;2023-08-08T11:57:37;59.13;;;44.38;;
14137;SDS011;8199;51.310;9.466;2023-08-08T12:00:04;59.95;;;44.55;;
14137;SDS011;8199;51.310;9.466;2023-08-08T12:02:34;56.38;;;44.42;;
14137;SDS011;8199;51.310;9.466;2023-08-08T12:05:03;57.22;;;43.67;;
14137;SDS011;8199;51.310;9.466;2023-08-08T12:07:31;56.22;;;43.28;;
14137;SDS011;8199;51.310;9.466;2023-08-08T12:10:00;56.42;;;43.60;;
14137;SDS011;8199;51.310;9.466;2023-08-08T12:12:28;56.30;;;44.15;;
14137;SDS011;8199;51.310;9.466;2023-08-08T12:14:56;57.05;;;44.03;;
14137;SDS011;8199;51.310;9.466;2023-08-08T12:17:21;60.13;;;45.53;;
14137;SDS011;8199;51.310;9.466;2023-08-08T12:19:47;58.15;;;46.67;;
14137;SDS011;8199;51.310;9.466;2023-08-08T12:22:13;57.97;;;46.40;;
14137;SDS011;8199;51.310;9.466;2023-08-08T12:24:39;51.97;;;40.22;;
14137;SDS011;8199;51.310;9.466;2023-08-08T12:27:05;68.43;;;52.08;;
14137;SDS011;8199;51.310;9.466;2023-08-08T12:29:31;61.70;;;47.38;;
14137;SDS011;8199;51.310;9.466;2023-08-08T12:31:56;51.20;;;40.03;;
14137;SDS011;8199;51.310;9.466;2023-08-08T12:34:22;51.38;;;40.35;;
14137;SDS011;8199;51.310;9.466;2023-08-08T12:36:47;57.42;;;44.58;;
14137;SDS011;8199;51.310;9.466;2023-08-08T12:39:13;51.45;;;40.25;;
14137;SDS011;8199;51.310;9.466;2023-08-08T12:41:39;56.40;;;43.22;;
14137;SDS011;8199;51.310;9.466;2023-08-08T12:44:05;53.08;;;41.85;;
14137;SDS011;8199;51.310;9.466;2023-08-08T12:46:30;54.22;;;42.53;;
14137;SDS011;8199;51.310;9.466;2023-08-08T12:48:56;46.53;;;37.20;;
14137;SDS011;8199;51.310;9.466;2023-08-08T12:51:22;50.10;;;38.85;;
14137;SDS011;8199;51.310;9.466;2023-08-08T12:53:47;62.25;;;47.17;;
14137;SDS011;8199;51.310;9.466;2023-08-08T12:56:13;60.60;;;45.33;;
14137;SDS011;8199;51.310;9.466;2023-08-08T12:58:39;61.67;;;46.83;;
14137;SDS011;8199;51.310;9.466;2023-08-08T13:01:05;56.05;;;43.40;;
14137;SDS011;8199;51.310;9.466;2023-08-08T13:03:32;54.65;;;43.15;;
14137;SDS011;8199;51.310;9.466;2023-08-08T13:05:59;66.13;;;51.72;;
14137;SDS011;8199;51.310;9.466;2023-08-08T13:08:25;58.97;;;45.42;;
14137;SDS011;8199;51.310;9.466;2023-08-08T13:10:50;54.95;;;44.47;;
14137;SDS011;8199;51.310;9.466;2023-08-08T13:13:16;56.90;;;43.83;;
14137;SDS011;8199;51.310;9.466;2023-08-08T13:15:42;59.08;;;46.28;;
14137;SDS011;8199;51.310;9.466;2023-08-08T13:18:08;58.45;;;46.28;;
14137;SDS011;8199;51.310;9.466;2023-08-08T13:20:34;60.88;;;46.50;;
14137;SDS011;8199;51.310;9.466;2023-08-08T13:22:59;65.50;;;52.05;;
14137;SDS011;8199;51.310;9.466;2023-08-08T13:25:25;64.45;;;49.85;;
14137;SDS011;8199;51.310;9.466;2023-08-08T13:27:50;63.60;;;50.55;;
14137;SDS011;8199;51.310;9.466;2023-08-08T13:30:16;65.53;;;51.58;;
14137;SDS011;8199;51.310;9.466;2023-08-08T13:32:41;71.60;;;54.05;;
14137;SDS011;8199;51.310;9.466;2023-08-08T13:35:07;68.10;;;52.33;;
14137;SDS011;8199;51.310;9.466;2023-08-08T13:37:33;61.47;;;49.42;;
14137;SDS011;8199;51.310;9.466;2023-08-08T13:39:59;63.65;;;50.17;;
14137;SDS011;8199;51.310;9.466;2023-08-08T13:42:24;64.80;;;49.78;;
14137;SDS011;8199;51.310;9.466;2023-08-08T13:44:50;59.70;;;46.67;;
14137;SDS011;8199;51.310;9.466;2023-08-08T13:47:16;64.70;;;51.63;;
14137;SDS011;8199;51.310;9.466;2023-08-08T13:49:41;59.13;;;46.90;;
14137;SDS011;8199;51.310;9.466;2023-08-08T13:52:08;70.63;;;55.22;;
14137;SDS011;8199;51.310;9.466;2023-08-08T13:54:33;73.10;;;56.70;;
14137;SDS011;8199;51.310;9.466;2023-08-08T13:56:59;78.68;;;62.65;;
14137;SDS011;8199;51.310;9.466;2023-08-08T13:59:25;69.72;;;54.58;;
14137;SDS011;8199;51.310;9.466;2023-08-08T14:01:51;77.57;;;60.15;;
14137;SDS011;8199;51.310;9.466;2023-08-08T14:04:17;83.85;;;65.20;;
14137;SDS011;8199;51.310;9.466;2023-08-08T14:06:43;93.85;;;71.03;;
14137;SDS011;8199;51.310;9.466;2023-08-08T14:09:08;89.88;;;71.63;;
14137;SDS011;8199;51.310;9.466;2023-08-08T14:11:34;85.47;;;67.00;;
14137;SDS011;8199;51.310;9.466;2023-08-08T14:14:00;88.93;;;69.75;;
14137;SDS011;8199;51.310;9.466;2023-08-08T14:16:25;93.38;;;74.00;;
14137;SDS011;8199;51.310;9.466;2023-08-08T14:18:51;81.68;;;65.18;;
14137;SDS011;8199;51.310;9.466;2023-08-08T14:21:16;114.90;;;91.95;;
14137;SDS011;8199;51.310;9.466;2023-08-08T14:23:42;106.68;;;82.38;;
14137;SDS011;8199;51.310;9.466;2023-08-08T14:26:09;105.47;;;85.47;;
14137;SDS011;8199;51.310;9.466;2023-08-08T14:28:34;111.32;;;87.88;;
14137;SDS011;8199;51.310;9.466;2023-08-08T14:31:00;111.60;;;91.28;;
14137;SDS011;8199;51.310;9.466;2023-08-08T14:33:27;114.07;;;90.35;;
14137;SDS011;8199;51.310;9.466;2023-08-08T14:35:53;108.80;;;88.18;;
14137;SDS011;8199;51.310;9.466;2023-08-08T14:38:18;113.63;;;90.18;;
14137;SDS011;8199;51.310;9.466;2023-08-08T14:40:48;108.22;;;88.63;;
14137;SDS011;8199;51.310;9.466;2023-08-08T14:43:13;107.43;;;87.18;;
14137;SDS011;8199;51.310;9.466;2023-08-08T14:45:39;107.53;;;87.75;;
14137;SDS011;8199;51.310;9.466;2023-08-08T14:48:05;109.05;;;88.88;;
14137;SDS011;8199;51.310;9.466;2023-08-08T14:50:31;110.97;;;90.68;;
14137;SDS011;8199;51.310;9.466;2023-08-08T14:52:57;113.97;;;94.60;;
14137;SDS011;8199;51.310;9.466;2023-08-08T14:55:23;118.43;;;98.13;;
14137;SDS011;8199;51.310;9.466;2023-08-08T14:57:48;126.93;;;103.70;;
14137;SDS011;8199;51.310;9.466;2023-08-08T15:00:14;122.07;;;99.93;;